ストックホルム/アーランダ の空港の天気 - METARとTAF

ストックホルム・アーランダ空港 ( ESSA / ARN ) - スウェーデン ストックホルム
飛行場実況気象(Metar)
観測時間09/23 01:20 CEST (09/22 23:20 UTC)
風向・風速南西 7m/s
視程10km以上
天気現象
なし
気温9℃
湿度76%
気圧996hPa
METARESSA 222320Z 23013KT CAVOK 09/05 Q0996 NOSIG
過去の天気等 Google飛行場航空写真 Wunderground天気予報

過去48時間のMETAR

飛行場予報(TAF)
発表時間: 9/23 01:30 CEST (9/22 23:30 UTC)
予報対象時間: 23日2時 CEST ~ 24日2時 CEST
風向・風速南西 6m/s
視程10km以上
なし
23日9時 CEST ~ 23日11時 CEST に徐々に
風向・風速西北西 5m/s
TAF ESSA 222330Z 2300/2324 22012KT CAVOK
BECMG 2307/2309 29010KT